sensor_id;sensor_type;location;lat;lon;timestamp;P1;durP1;ratioP1;P2;durP2;ratioP2
29938;SDS011;16799;50.844;5.304;2023-02-18T00:01:18;27.67;;;15.00;;
29938;SDS011;16799;50.844;5.304;2023-02-18T00:03:45;30.87;;;17.30;;
29938;SDS011;16799;50.844;5.304;2023-02-18T00:06:12;27.40;;;15.23;;
29938;SDS011;16799;50.844;5.304;2023-02-18T00:08:40;34.97;;;16.97;;
29938;SDS011;16799;50.844;5.304;2023-02-18T00:11:07;27.33;;;16.20;;
29938;SDS011;16799;50.844;5.304;2023-02-18T00:13:33;32.63;;;18.73;;
29938;SDS011;16799;50.844;5.304;2023-02-18T00:16:00;29.70;;;17.97;;
29938;SDS011;16799;50.844;5.304;2023-02-18T00:18:33;30.73;;;15.80;;
29938;SDS011;16799;50.844;5.304;2023-02-18T00:20:59;27.67;;;15.80;;
29938;SDS011;16799;50.844;5.304;2023-02-18T00:23:25;34.53;;;16.00;;
29938;SDS011;16799;50.844;5.304;2023-02-18T00:26:04;28.83;;;14.70;;
29938;SDS011;16799;50.844;5.304;2023-02-18T00:28:31;25.63;;;15.10;;
29938;SDS011;16799;50.844;5.304;2023-02-18T00:30:57;34.70;;;15.53;;
29938;SDS011;16799;50.844;5.304;2023-02-18T00:33:23;31.23;;;15.07;;
29938;SDS011;16799;50.844;5.304;2023-02-18T00:35:49;24.90;;;14.73;;
29938;SDS011;16799;50.844;5.304;2023-02-18T00:38:15;21.90;;;13.73;;
29938;SDS011;16799;50.844;5.304;2023-02-18T00:40:40;24.90;;;12.80;;
29938;SDS011;16799;50.844;5.304;2023-02-18T00:43:07;23.90;;;15.00;;
29938;SDS011;16799;50.844;5.304;2023-02-18T00:45:34;23.50;;;14.90;;
29938;SDS011;16799;50.844;5.304;2023-02-18T00:47:59;26.80;;;14.90;;
29938;SDS011;16799;50.844;5.304;2023-02-18T00:50:25;26.60;;;13.87;;
29938;SDS011;16799;50.844;5.304;2023-02-18T00:52:51;24.37;;;12.70;;
29938;SDS011;16799;50.844;5.304;2023-02-18T00:55:16;23.70;;;13.00;;
29938;SDS011;16799;50.844;5.304;2023-02-18T00:57:42;25.57;;;12.40;;
29938;SDS011;16799;50.844;5.304;2023-02-18T01:00:08;17.40;;;11.60;;
29938;SDS011;16799;50.844;5.304;2023-02-18T01:02:34;18.97;;;11.37;;
29938;SDS011;16799;50.844;5.304;2023-02-18T01:05:00;22.50;;;12.53;;
29938;SDS011;16799;50.844;5.304;2023-02-18T01:07:25;18.73;;;11.13;;
29938;SDS011;16799;50.844;5.304;2023-02-18T01:09:51;19.30;;;11.30;;
29938;SDS011;16799;50.844;5.304;2023-02-18T01:12:17;15.40;;;10.07;;
29938;SDS011;16799;50.844;5.304;2023-02-18T01:14:43;14.57;;;9.47;;
29938;SDS011;16799;50.844;5.304;2023-02-18T01:17:08;20.30;;;10.80;;
29938;SDS011;16799;50.844;5.304;2023-02-18T01:19:34;15.83;;;8.77;;
29938;SDS011;16799;50.844;5.304;2023-02-18T01:22:00;13.07;;;9.40;;
29938;SDS011;16799;50.844;5.304;2023-02-18T01:24:26;14.67;;;8.27;;
29938;SDS011;16799;50.844;5.304;2023-02-18T01:26:51;9.10;;;6.13;;
29938;SDS011;16799;50.844;5.304;2023-02-18T01:29:17;9.83;;;6.20;;
29938;SDS011;16799;50.844;5.304;2023-02-18T01:31:42;13.70;;;7.00;;
29938;SDS011;16799;50.844;5.304;2023-02-18T01:34:08;12.97;;;8.47;;
29938;SDS011;16799;50.844;5.304;2023-02-18T01:36:34;9.63;;;7.37;;
29938;SDS011;16799;50.844;5.304;2023-02-18T01:38:59;7.70;;;5.20;;
29938;SDS011;16799;50.844;5.304;2023-02-18T01:41:25;6.87;;;5.67;;
29938;SDS011;16799;50.844;5.304;2023-02-18T01:46:40;4.53;;;4.13;;
29938;SDS011;16799;50.844;5.304;2023-02-18T01:49:06;3.70;;;3.03;;
29938;SDS011;16799;50.844;5.304;2023-02-18T01:51:40;2.80;;;2.60;;
29938;SDS011;16799;50.844;5.304;2023-02-18T01:54:19;2.33;;;2.13;;
29938;SDS011;16799;50.844;5.304;2023-02-18T01:56:59;2.83;;;2.50;;
29938;SDS011;16799;50.844;5.304;2023-02-18T01:59:43;2.40;;;2.20;;
29938;SDS011;16799;50.844;5.304;2023-02-18T02:02:14;1.80;;;1.70;;
29938;SDS011;16799;50.844;5.304;2023-02-18T02:04:43;2.30;;;2.10;;
29938;SDS011;16799;50.844;5.304;2023-02-18T02:07:09;1.97;;;1.83;;
29938;SDS011;16799;50.844;5.304;2023-02-18T02:09:35;2.23;;;2.13;;
29938;SDS011;16799;50.844;5.304;2023-02-18T02:12:09;1.67;;;1.57;;
29938;SDS011;16799;50.844;5.304;2023-02-18T02:25:59;1.40;;;1.20;;
29938;SDS011;16799;50.844;5.304;2023-02-18T02:31:37;1.77;;;1.50;;
29938;SDS011;16799;50.844;5.304;2023-02-18T02:34:27;1.50;;;1.40;;
29938;SDS011;16799;50.844;5.304;2023-02-18T02:37:17;2.03;;;1.93;;
29938;SDS011;16799;50.844;5.304;2023-02-18T02:43:10;2.53;;;2.43;;
29938;SDS011;16799;50.844;5.304;2023-02-18T02:46:12;3.67;;;1.77;;
29938;SDS011;16799;50.844;5.304;2023-02-18T02:48:51;3.00;;;2.80;;
29938;SDS011;16799;50.844;5.304;2023-02-18T02:51:27;2.07;;;1.97;;
29938;SDS011;16799;50.844;5.304;2023-02-18T02:54:14;4.40;;;2.27;;
29938;SDS011;16799;50.844;5.304;2023-02-18T02:57:02;3.00;;;1.97;;
29938;SDS011;16799;50.844;5.304;2023-02-18T02:59:38;2.40;;;2.20;;
29938;SDS011;16799;50.844;5.304;2023-02-18T03:13:21;2.93;;;2.73;;
29938;SDS011;16799;50.844;5.304;2023-02-18T03:16:13;3.73;;;3.53;;
29938;SDS011;16799;50.844;5.304;2023-02-18T03:19:23;3.83;;;3.30;;
29938;SDS011;16799;50.844;5.304;2023-02-18T03:21:54;2.50;;;2.40;;
29938;SDS011;16799;50.844;5.304;2023-02-18T03:24:28;3.20;;;3.00;;
29938;SDS011;16799;50.844;5.304;2023-02-18T03:26:58;2.80;;;2.60;;
29938;SDS011;16799;50.844;5.304;2023-02-18T03:29:30;4.00;;;2.80;;
29938;SDS011;16799;50.844;5.304;2023-02-18T03:31:58;3.00;;;2.70;;
29938;SDS011;16799;50.844;5.304;2023-02-18T03:34:29;2.90;;;2.67;;
29938;SDS011;16799;50.844;5.304;2023-02-18T03:36:58;3.60;;;2.10;;
29938;SDS011;16799;50.844;5.304;2023-02-18T03:39:26;5.50;;;2.30;;
29938;SDS011;16799;50.844;5.304;2023-02-18T03:41:54;3.20;;;2.73;;
29938;SDS011;16799;50.844;5.304;2023-02-18T03:44:20;2.80;;;2.60;;
29938;SDS011;16799;50.844;5.304;2023-02-18T03:46:49;2.70;;;2.50;;
29938;SDS011;16799;50.844;5.304;2023-02-18T03:49:16;1.73;;;1.63;;
29938;SDS011;16799;50.844;5.304;2023-02-18T03:51:41;2.10;;;2.00;;
29938;SDS011;16799;50.844;5.304;2023-02-18T03:54:07;3.43;;;3.03;;
29938;SDS011;16799;50.844;5.304;2023-02-18T03:56:34;2.50;;;2.30;;
29938;SDS011;16799;50.844;5.304;2023-02-18T03:59:01;2.53;;;2.33;;
29938;SDS011;16799;50.844;5.304;2023-02-18T04:01:27;3.83;;;3.13;;
29938;SDS011;16799;50.844;5.304;2023-02-18T04:03:53;6.33;;;2.43;;
29938;SDS011;16799;50.844;5.304;2023-02-18T04:06:19;3.53;;;3.23;;
29938;SDS011;16799;50.844;5.304;2023-02-18T04:08:46;2.50;;;2.30;;
29938;SDS011;16799;50.844;5.304;2023-02-18T04:11:11;3.33;;;3.03;;
29938;SDS011;16799;50.844;5.304;2023-02-18T04:13:37;2.97;;;2.77;;
29938;SDS011;16799;50.844;5.304;2023-02-18T04:16:03;3.20;;;3.00;;
29938;SDS011;16799;50.844;5.304;2023-02-18T04:18:29;3.73;;;3.43;;
29938;SDS011;16799;50.844;5.304;2023-02-18T04:20:55;4.83;;;4.13;;
29938;SDS011;16799;50.844;5.304;2023-02-18T04:23:20;4.83;;;3.67;;
29938;SDS011;16799;50.844;5.304;2023-02-18T04:25:46;4.27;;;3.87;;
29938;SDS011;16799;50.844;5.304;2023-02-18T04:28:13;3.80;;;3.40;;
29938;SDS011;16799;50.844;5.304;2023-02-18T04:30:40;4.43;;;4.03;;
29938;SDS011;16799;50.844;5.304;2023-02-18T04:33:06;4.70;;;4.30;;
29938;SDS011;16799;50.844;5.304;2023-02-18T04:35:32;6.57;;;5.23;;
29938;SDS011;16799;50.844;5.304;2023-02-18T04:37:58;4.73;;;4.10;;
29938;SDS011;16799;50.844;5.304;2023-02-18T04:40:23;4.20;;;4.00;;
29938;SDS011;16799;50.844;5.304;2023-02-18T04:42:50;5.43;;;5.03;;
29938;SDS011;16799;50.844;5.304;2023-02-18T04:45:16;4.47;;;4.20;;
29938;SDS011;16799;50.844;5.304;2023-02-18T04:47:41;4.87;;;4.53;;
29938;SDS011;16799;50.844;5.304;2023-02-18T04:50:08;6.40;;;6.00;;
29938;SDS011;16799;50.844;5.304;2023-02-18T04:52:34;6.13;;;3.07;;
29938;SDS011;16799;50.844;5.304;2023-02-18T04:54:59;4.30;;;3.23;;
29938;SDS011;16799;50.844;5.304;2023-02-18T04:57:25;3.03;;;2.73;;
29938;SDS011;16799;50.844;5.304;2023-02-18T04:59:51;3.43;;;3.23;;
29938;SDS011;16799;50.844;5.304;2023-02-18T05:02:16;3.40;;;3.20;;
29938;SDS011;16799;50.844;5.304;2023-02-18T05:04:42;2.90;;;2.70;;
29938;SDS011;16799;50.844;5.304;2023-02-18T05:07:08;2.73;;;2.53;;
29938;SDS011;16799;50.844;5.304;2023-02-18T05:09:33;3.10;;;2.90;;
29938;SDS011;16799;50.844;5.304;2023-02-18T05:11:59;2.53;;;2.33;;
29938;SDS011;16799;50.844;5.304;2023-02-18T05:14:25;4.20;;;2.07;;
29938;SDS011;16799;50.844;5.304;2023-02-18T05:16:50;2.30;;;2.10;;
29938;SDS011;16799;50.844;5.304;2023-02-18T05:19:16;1.70;;;1.60;;
29938;SDS011;16799;50.844;5.304;2023-02-18T05:21:42;2.33;;;2.23;;
29938;SDS011;16799;50.844;5.304;2023-02-18T05:24:08;2.20;;;2.10;;
29938;SDS011;16799;50.844;5.304;2023-02-18T05:26:34;2.87;;;2.67;;
29938;SDS011;16799;50.844;5.304;2023-02-18T05:28:59;2.73;;;2.53;;
29938;SDS011;16799;50.844;5.304;2023-02-18T05:31:25;2.93;;;2.73;;
29938;SDS011;16799;50.844;5.304;2023-02-18T05:33:51;2.30;;;2.20;;
29938;SDS011;16799;50.844;5.304;2023-02-18T05:36:16;2.47;;;2.27;;
29938;SDS011;16799;50.844;5.304;2023-02-18T05:38:42;6.23;;;2.47;;
29938;SDS011;16799;50.844;5.304;2023-02-18T05:41:08;2.70;;;2.50;;
29938;SDS011;16799;50.844;5.304;2023-02-18T05:43:33;3.20;;;3.00;;
29938;SDS011;16799;50.844;5.304;2023-02-18T05:46:19;2.27;;;2.17;;
29938;SDS011;16799;50.844;5.304;2023-02-18T05:48:45;2.97;;;2.77;;
29938;SDS011;16799;50.844;5.304;2023-02-18T05:51:11;4.53;;;3.70;;
29938;SDS011;16799;50.844;5.304;2023-02-18T05:53:36;2.90;;;2.50;;
29938;SDS011;16799;50.844;5.304;2023-02-18T05:56:02;9.30;;;2.60;;
29938;SDS011;16799;50.844;5.304;2023-02-18T05:58:28;3.50;;;3.30;;
29938;SDS011;16799;50.844;5.304;2023-02-18T06:00:54;3.03;;;2.73;;
29938;SDS011;16799;50.844;5.304;2023-02-18T06:03:19;3.97;;;2.27;;
29938;SDS011;16799;50.844;5.304;2023-02-18T06:05:48;3.20;;;2.90;;
29938;SDS011;16799;50.844;5.304;2023-02-18T06:08:14;9.70;;;3.83;;
29938;SDS011;16799;50.844;5.304;2023-02-18T06:10:40;3.37;;;2.77;;
29938;SDS011;16799;50.844;5.304;2023-02-18T06:13:05;2.70;;;2.50;;
29938;SDS011;16799;50.844;5.304;2023-02-18T06:15:31;4.70;;;2.97;;
29938;SDS011;16799;50.844;5.304;2023-02-18T06:17:56;2.77;;;2.57;;
29938;SDS011;16799;50.844;5.304;2023-02-18T06:20:22;3.23;;;3.03;;
29938;SDS011;16799;50.844;5.304;2023-02-18T06:22:48;2.40;;;2.03;;
29938;SDS011;16799;50.844;5.304;2023-02-18T06:25:13;2.60;;;2.40;;
29938;SDS011;16799;50.844;5.304;2023-02-18T06:27:39;3.73;;;2.33;;
29938;SDS011;16799;50.844;5.304;2023-02-18T06:30:06;3.70;;;2.33;;
29938;SDS011;16799;50.844;5.304;2023-02-18T06:32:32;4.10;;;2.93;;
29938;SDS011;16799;50.844;5.304;2023-02-18T06:34:58;2.60;;;2.00;;
29938;SDS011;16799;50.844;5.304;2023-02-18T06:37:24;2.93;;;1.83;;
29938;SDS011;16799;50.844;5.304;2023-02-18T06:39:49;5.40;;;2.10;;
29938;SDS011;16799;50.844;5.304;2023-02-18T06:42:15;2.27;;;1.70;;
29938;SDS011;16799;50.844;5.304;2023-02-18T06:44:41;3.40;;;1.93;;
29938;SDS011;16799;50.844;5.304;2023-02-18T06:47:06;2.23;;;1.80;;
29938;SDS011;16799;50.844;5.304;2023-02-18T06:49:32;6.40;;;1.80;;
29938;SDS011;16799;50.844;5.304;2023-02-18T06:51:58;4.97;;;2.07;;
29938;SDS011;16799;50.844;5.304;2023-02-18T06:54:23;3.70;;;2.20;;
29938;SDS011;16799;50.844;5.304;2023-02-18T06:56:49;7.23;;;2.93;;
29938;SDS011;16799;50.844;5.304;2023-02-18T06:59:15;4.80;;;2.23;;
29938;SDS011;16799;50.844;5.304;2023-02-18T07:01:41;2.83;;;1.90;;
29938;SDS011;16799;50.844;5.304;2023-02-18T07:04:06;7.40;;;2.50;;
29938;SDS011;16799;50.844;5.304;2023-02-18T07:06:32;3.30;;;2.30;;
29938;SDS011;16799;50.844;5.304;2023-02-18T07:08:58;10.10;;;2.53;;
29938;SDS011;16799;50.844;5.304;2023-02-18T07:11:24;10.40;;;3.03;;
29938;SDS011;16799;50.844;5.304;2023-02-18T07:13:49;2.97;;;2.43;;
29938;SDS011;16799;50.844;5.304;2023-02-18T07:16:15;13.73;;;2.57;;
29938;SDS011;16799;50.844;5.304;2023-02-18T07:18:40;7.30;;;2.17;;
29938;SDS011;16799;50.844;5.304;2023-02-18T07:21:06;10.00;;;2.73;;
29938;SDS011;16799;50.844;5.304;2023-02-18T07:23:32;9.67;;;2.70;;
29938;SDS011;16799;50.844;5.304;2023-02-18T07:26:08;10.93;;;5.47;;
29938;SDS011;16799;50.844;5.304;2023-02-18T07:28:35;4.23;;;1.90;;
29938;SDS011;16799;50.844;5.304;2023-02-18T07:31:02;4.40;;;3.43;;
29938;SDS011;16799;50.844;5.304;2023-02-18T07:33:28;6.03;;;2.40;;
29938;SDS011;16799;50.844;5.304;2023-02-18T07:35:54;6.00;;;2.37;;
29938;SDS011;16799;50.844;5.304;2023-02-18T07:38:21;4.97;;;2.60;;
29938;SDS011;16799;50.844;5.304;2023-02-18T07:40:48;16.17;;;3.23;;
29938;SDS011;16799;50.844;5.304;2023-02-18T07:43:14;6.77;;;2.53;;
29938;SDS011;16799;50.844;5.304;2023-02-18T07:45:39;17.13;;;4.67;;
29938;SDS011;16799;50.844;5.304;2023-02-18T07:48:05;8.17;;;2.03;;
29938;SDS011;16799;50.844;5.304;2023-02-18T07:50:31;9.70;;;2.00;;
29938;SDS011;16799;50.844;5.304;2023-02-18T07:53:02;13.83;;;3.80;;
29938;SDS011;16799;50.844;5.304;2023-02-18T07:55:29;10.50;;;3.13;;
29938;SDS011;16799;50.844;5.304;2023-02-18T07:58:23;7.23;;;2.20;;
29938;SDS011;16799;50.844;5.304;2023-02-18T08:00:50;11.43;;;2.73;;
29938;SDS011;16799;50.844;5.304;2023-02-18T08:03:24;3.33;;;2.00;;
29938;SDS011;16799;50.844;5.304;2023-02-18T08:05:51;8.10;;;2.90;;
29938;SDS011;16799;50.844;5.304;2023-02-18T08:08:19;13.03;;;2.50;;
29938;SDS011;16799;50.844;5.304;2023-02-18T08:10:47;4.67;;;2.80;;
29938;SDS011;16799;50.844;5.304;2023-02-18T08:13:13;26.73;;;3.60;;
29938;SDS011;16799;50.844;5.304;2023-02-18T08:15:39;13.63;;;2.90;;
29938;SDS011;16799;50.844;5.304;2023-02-18T08:18:05;6.80;;;3.13;;
29938;SDS011;16799;50.844;5.304;2023-02-18T08:20:36;11.90;;;2.60;;
29938;SDS011;16799;50.844;5.304;2023-02-18T08:23:03;2.80;;;2.23;;
29938;SDS011;16799;50.844;5.304;2023-02-18T08:25:29;7.40;;;2.87;;
29938;SDS011;16799;50.844;5.304;2023-02-18T08:27:55;9.10;;;1.83;;
29938;SDS011;16799;50.844;5.304;2023-02-18T08:30:21;7.83;;;2.40;;
29938;SDS011;16799;50.844;5.304;2023-02-18T08:32:46;5.83;;;2.40;;
29938;SDS011;16799;50.844;5.304;2023-02-18T08:35:12;23.83;;;3.03;;
29938;SDS011;16799;50.844;5.304;2023-02-18T08:37:37;12.50;;;2.43;;
29938;SDS011;16799;50.844;5.304;2023-02-18T08:40:03;13.07;;;2.27;;
29938;SDS011;16799;50.844;5.304;2023-02-18T08:42:31;10.30;;;2.80;;
29938;SDS011;16799;50.844;5.304;2023-02-18T08:44:56;7.83;;;1.83;;
29938;SDS011;16799;50.844;5.304;2023-02-18T08:47:22;9.13;;;2.67;;
29938;SDS011;16799;50.844;5.304;2023-02-18T08:49:48;12.47;;;2.00;;
29938;SDS011;16799;50.844;5.304;2023-02-18T08:52:14;18.27;;;3.50;;
29938;SDS011;16799;50.844;5.304;2023-02-18T08:54:39;17.87;;;3.07;;
29938;SDS011;16799;50.844;5.304;2023-02-18T08:57:05;9.60;;;2.67;;
29938;SDS011;16799;50.844;5.304;2023-02-18T08:59:30;13.60;;;3.20;;
29938;SDS011;16799;50.844;5.304;2023-02-18T09:01:56;16.93;;;2.60;;
29938;SDS011;16799;50.844;5.304;2023-02-18T09:04:22;9.23;;;3.10;;
29938;SDS011;16799;50.844;5.304;2023-02-18T09:06:48;9.00;;;2.37;;
29938;SDS011;16799;50.844;5.304;2023-02-18T09:09:14;12.70;;;3.73;;
29938;SDS011;16799;50.844;5.304;2023-02-18T09:11:40;9.27;;;3.83;;
29938;SDS011;16799;50.844;5.304;2023-02-18T09:14:06;19.33;;;3.30;;
29938;SDS011;16799;50.844;5.304;2023-02-18T09:16:32;11.70;;;3.20;;
29938;SDS011;16799;50.844;5.304;2023-02-18T09:18:58;9.30;;;2.97;;
29938;SDS011;16799;50.844;5.304;2023-02-18T09:21:23;5.93;;;3.27;;
29938;SDS011;16799;50.844;5.304;2023-02-18T09:23:50;6.03;;;3.03;;
29938;SDS011;16799;50.844;5.304;2023-02-18T09:26:17;8.73;;;2.97;;
29938;SDS011;16799;50.844;5.304;2023-02-18T09:28:47;11.50;;;2.93;;
29938;SDS011;16799;50.844;5.304;2023-02-18T09:31:14;6.27;;;2.53;;
29938;SDS011;16799;50.844;5.304;2023-02-18T09:33:49;4.97;;;2.20;;
29938;SDS011;16799;50.844;5.304;2023-02-18T09:36:17;5.30;;;2.37;;
29938;SDS011;16799;50.844;5.304;2023-02-18T09:38:44;18.17;;;4.03;;
29938;SDS011;16799;50.844;5.304;2023-02-18T09:44:24;4.03;;;2.13;;
29938;SDS011;16799;50.844;5.304;2023-02-18T09:46:59;7.20;;;1.67;;
29938;SDS011;16799;50.844;5.304;2023-02-18T09:49:36;11.13;;;2.13;;
29938;SDS011;16799;50.844;5.304;2023-02-18T09:52:06;4.67;;;1.77;;
29938;SDS011;16799;50.844;5.304;2023-02-18T09:54:37;2.73;;;1.77;;
29938;SDS011;16799;50.844;5.304;2023-02-18T09:57:03;2.30;;;1.57;;
29938;SDS011;16799;50.844;5.304;2023-02-18T09:59:31;4.20;;;2.50;;
29938;SDS011;16799;50.844;5.304;2023-02-18T10:01:57;2.70;;;1.77;;
29938;SDS011;16799;50.844;5.304;2023-02-18T10:04:36;3.00;;;2.33;;
29938;SDS011;16799;50.844;5.304;2023-02-18T10:07:07;8.63;;;4.13;;
29938;SDS011;16799;50.844;5.304;2023-02-18T10:09:43;6.00;;;4.00;;
29938;SDS011;16799;50.844;5.304;2023-02-18T10:12:15;10.47;;;6.20;;
29938;SDS011;16799;50.844;5.304;2023-02-18T10:14:42;10.83;;;5.73;;
29938;SDS011;16799;50.844;5.304;2023-02-18T10:17:15;9.83;;;5.40;;
29938;SDS011;16799;50.844;5.304;2023-02-18T10:19:42;27.83;;;16.50;;
29938;SDS011;16799;50.844;5.304;2023-02-18T10:22:11;8.50;;;5.33;;
29938;SDS011;16799;50.844;5.304;2023-02-18T10:24:57;6.30;;;4.33;;
29938;SDS011;16799;50.844;5.304;2023-02-18T10:27:27;7.83;;;3.67;;
29938;SDS011;16799;50.844;5.304;2023-02-18T10:30:15;6.83;;;4.70;;
29938;SDS011;16799;50.844;5.304;2023-02-18T10:32:48;19.37;;;6.00;;
29938;SDS011;16799;50.844;5.304;2023-02-18T10:35:22;23.57;;;12.33;;
29938;SDS011;16799;50.844;5.304;2023-02-18T10:39:28;13.80;;;6.30;;
29938;SDS011;16799;50.844;5.304;2023-02-18T10:41:48;9.90;;;3.93;;
29938;SDS011;16799;50.844;5.304;2023-02-18T10:44:38;6.17;;;5.77;;
29938;SDS011;16799;50.844;5.304;2023-02-18T10:47:37;50.83;;;23.53;;
29938;SDS011;16799;50.844;5.304;2023-02-18T10:50:08;14.23;;;6.67;;
29938;SDS011;16799;50.844;5.304;2023-02-18T10:52:39;10.37;;;6.37;;
29938;SDS011;16799;50.844;5.304;2023-02-18T10:55:10;50.93;;;23.70;;
29938;SDS011;16799;50.844;5.304;2023-02-18T11:00:25;9.47;;;5.53;;
29938;SDS011;16799;50.844;5.304;2023-02-18T11:05:43;8.30;;;7.40;;
29938;SDS011;16799;50.844;5.304;2023-02-18T11:08:19;10.13;;;5.10;;
29938;SDS011;16799;50.844;5.304;2023-02-18T11:10:51;6.90;;;6.30;;
29938;SDS011;16799;50.844;5.304;2023-02-18T11:13:22;19.40;;;6.43;;
29938;SDS011;16799;50.844;5.304;2023-02-18T11:15:54;14.93;;;7.13;;
29938;SDS011;16799;50.844;5.304;2023-02-18T11:20:55;12.27;;;6.77;;
29938;SDS011;16799;50.844;5.304;2023-02-18T11:23:22;11.97;;;6.53;;
29938;SDS011;16799;50.844;5.304;2023-02-18T11:31:05;13.67;;;5.30;;
29938;SDS011;16799;50.844;5.304;2023-02-18T11:33:38;6.13;;;5.10;;
29938;SDS011;16799;50.844;5.304;2023-02-18T11:38:54;8.20;;;6.03;;
29938;SDS011;16799;50.844;5.304;2023-02-18T11:41:42;10.00;;;5.90;;
29938;SDS011;16799;50.844;5.304;2023-02-18T11:44:29;11.90;;;5.23;;
29938;SDS011;16799;50.844;5.304;2023-02-18T11:47:16;13.17;;;4.50;;
29938;SDS011;16799;50.844;5.304;2023-02-18T11:49:57;5.63;;;4.87;;
29938;SDS011;16799;50.844;5.304;2023-02-18T11:52:45;10.70;;;4.70;;
29938;SDS011;16799;50.844;5.304;2023-02-18T11:57:42;3.60;;;2.63;;
29938;SDS011;16799;50.844;5.304;2023-02-18T12:02:54;7.57;;;3.80;;
29938;SDS011;16799;50.844;5.304;2023-02-18T12:05:24;3.67;;;3.07;;
29938;SDS011;16799;50.844;5.304;2023-02-18T12:07:58;13.77;;;3.83;;
29938;SDS011;16799;50.844;5.304;2023-02-18T12:10:35;8.93;;;3.70;;
29938;SDS011;16799;50.844;5.304;2023-02-18T12:13:21;12.57;;;3.60;;
29938;SDS011;16799;50.844;5.304;2023-02-18T12:24:24;9.13;;;3.70;;
29938;SDS011;16799;50.844;5.304;2023-02-18T12:32:23;8.93;;;4.13;;
29938;SDS011;16799;50.844;5.304;2023-02-18T12:40:09;7.43;;;3.20;;
29938;SDS011;16799;50.844;5.304;2023-02-18T12:48:14;11.73;;;4.50;;
29938;SDS011;16799;50.844;5.304;2023-02-18T12:54:20;7.80;;;4.70;;
29938;SDS011;16799;50.844;5.304;2023-02-18T12:59:45;7.83;;;3.93;;
29938;SDS011;16799;50.844;5.304;2023-02-18T13:11:01;6.13;;;5.30;;
29938;SDS011;16799;50.844;5.304;2023-02-18T13:13:57;8.90;;;4.53;;
29938;SDS011;16799;50.844;5.304;2023-02-18T13:16:40;13.37;;;5.27;;
29938;SDS011;16799;50.844;5.304;2023-02-18T13:21:50;9.20;;;5.77;;
29938;SDS011;16799;50.844;5.304;2023-02-18T13:24:36;16.53;;;5.60;;
29938;SDS011;16799;50.844;5.304;2023-02-18T13:27:18;6.00;;;4.27;;
29938;SDS011;16799;50.844;5.304;2023-02-18T13:29:59;7.57;;;5.60;;
29938;SDS011;16799;50.844;5.304;2023-02-18T13:35:41;7.27;;;4.73;;
29938;SDS011;16799;50.844;5.304;2023-02-18T13:41:20;4.80;;;4.40;;
29938;SDS011;16799;50.844;5.304;2023-02-18T13:43:46;6.60;;;4.73;;
29938;SDS011;16799;50.844;5.304;2023-02-18T13:46:13;14.13;;;6.30;;
29938;SDS011;16799;50.844;5.304;2023-02-18T13:48:52;6.20;;;5.63;;
29938;SDS011;16799;50.844;5.304;2023-02-18T13:51:29;8.57;;;5.53;;
29938;SDS011;16799;50.844;5.304;2023-02-18T13:54:05;8.10;;;5.07;;
29938;SDS011;16799;50.844;5.304;2023-02-18T13:59:37;6.23;;;5.37;;
29938;SDS011;16799;50.844;5.304;2023-02-18T14:09:49;8.30;;;5.10;;
29938;SDS011;16799;50.844;5.304;2023-02-18T14:17:46;15.07;;;5.93;;
29938;SDS011;16799;50.844;5.304;2023-02-18T14:25:48;7.03;;;4.70;;
29938;SDS011;16799;50.844;5.304;2023-02-18T14:31:42;8.23;;;4.63;;
29938;SDS011;16799;50.844;5.304;2023-02-18T14:36:45;5.10;;;4.03;;
29938;SDS011;16799;50.844;5.304;2023-02-18T14:51:01;5.80;;;4.40;;
29938;SDS011;16799;50.844;5.304;2023-02-18T14:53:26;7.47;;;4.70;;
29938;SDS011;16799;50.844;5.304;2023-02-18T14:55:56;6.83;;;5.10;;
29938;SDS011;16799;50.844;5.304;2023-02-18T15:00:56;13.00;;;6.53;;
29938;SDS011;16799;50.844;5.304;2023-02-18T15:03:22;8.00;;;4.10;;
29938;SDS011;16799;50.844;5.304;2023-02-18T15:05:50;9.93;;;4.97;;
29938;SDS011;16799;50.844;5.304;2023-02-18T15:08:17;5.63;;;5.00;;
29938;SDS011;16799;50.844;5.304;2023-02-18T15:13:33;10.80;;;5.80;;
29938;SDS011;16799;50.844;5.304;2023-02-18T15:16:04;12.70;;;4.77;;
29938;SDS011;16799;50.844;5.304;2023-02-18T15:21:34;8.17;;;4.40;;
29938;SDS011;16799;50.844;5.304;2023-02-18T15:24:05;11.53;;;5.03;;
29938;SDS011;16799;50.844;5.304;2023-02-18T15:26:44;11.60;;;5.83;;
29938;SDS011;16799;50.844;5.304;2023-02-18T15:31:47;9.50;;;5.57;;
29938;SDS011;16799;50.844;5.304;2023-02-18T15:34:57;14.43;;;5.03;;
29938;SDS011;16799;50.844;5.304;2023-02-18T15:37:04;14.60;;;6.13;;
29938;SDS011;16799;50.844;5.304;2023-02-18T15:39:32;10.50;;;5.33;;
29938;SDS011;16799;50.844;5.304;2023-02-18T15:42:05;6.73;;;5.73;;
29938;SDS011;16799;50.844;5.304;2023-02-18T15:44:31;16.33;;;6.00;;
29938;SDS011;16799;50.844;5.304;2023-02-18T15:47:04;17.60;;;6.80;;
29938;SDS011;16799;50.844;5.304;2023-02-18T15:49:32;14.27;;;7.07;;
29938;SDS011;16799;50.844;5.304;2023-02-18T15:52:01;8.20;;;6.37;;
29938;SDS011;16799;50.844;5.304;2023-02-18T15:54:28;7.73;;;6.20;;
29938;SDS011;16799;50.844;5.304;2023-02-18T15:56:56;8.10;;;7.03;;
29938;SDS011;16799;50.844;5.304;2023-02-18T15:59:27;12.20;;;6.67;;
29938;SDS011;16799;50.844;5.304;2023-02-18T16:04:33;14.57;;;6.40;;
29938;SDS011;16799;50.844;5.304;2023-02-18T16:07:04;11.97;;;6.60;;
29938;SDS011;16799;50.844;5.304;2023-02-18T16:09:43;8.43;;;5.93;;
29938;SDS011;16799;50.844;5.304;2023-02-18T16:12:15;15.40;;;6.20;;
29938;SDS011;16799;50.844;5.304;2023-02-18T16:14:53;9.70;;;5.20;;
29938;SDS011;16799;50.844;5.304;2023-02-18T16:17:20;9.70;;;5.90;;
29938;SDS011;16799;50.844;5.304;2023-02-18T16:19:55;15.67;;;7.20;;
29938;SDS011;16799;50.844;5.304;2023-02-18T16:22:32;13.23;;;7.87;;
29938;SDS011;16799;50.844;5.304;2023-02-18T16:25:07;14.03;;;7.60;;
29938;SDS011;16799;50.844;5.304;2023-02-18T16:30:27;9.70;;;8.37;;
29938;SDS011;16799;50.844;5.304;2023-02-18T16:32:55;11.20;;;8.17;;
29938;SDS011;16799;50.844;5.304;2023-02-18T16:35:22;19.90;;;8.60;;
29938;SDS011;16799;50.844;5.304;2023-02-18T16:37:51;12.30;;;8.50;;
29938;SDS011;16799;50.844;5.304;2023-02-18T16:40:22;12.40;;;8.00;;
29938;SDS011;16799;50.844;5.304;2023-02-18T16:42:51;10.40;;;8.30;;
29938;SDS011;16799;50.844;5.304;2023-02-18T16:45:19;11.87;;;7.57;;
29938;SDS011;16799;50.844;5.304;2023-02-18T16:47:48;12.40;;;7.40;;
29938;SDS011;16799;50.844;5.304;2023-02-18T16:50:18;10.70;;;7.90;;
29938;SDS011;16799;50.844;5.304;2023-02-18T16:52:46;11.30;;;7.17;;
29938;SDS011;16799;50.844;5.304;2023-02-18T16:57:44;13.77;;;7.40;;
29938;SDS011;16799;50.844;5.304;2023-02-18T17:00:10;14.83;;;8.43;;
29938;SDS011;16799;50.844;5.304;2023-02-18T17:02:36;12.60;;;8.07;;
29938;SDS011;16799;50.844;5.304;2023-02-18T17:05:02;11.93;;;8.27;;
29938;SDS011;16799;50.844;5.304;2023-02-18T17:07:27;9.50;;;8.33;;
29938;SDS011;16799;50.844;5.304;2023-02-18T17:09:56;27.47;;;10.70;;
29938;SDS011;16799;50.844;5.304;2023-02-18T17:12:23;17.33;;;11.03;;
29938;SDS011;16799;50.844;5.304;2023-02-18T17:14:49;18.10;;;9.77;;
29938;SDS011;16799;50.844;5.304;2023-02-18T17:17:14;12.30;;;8.50;;
29938;SDS011;16799;50.844;5.304;2023-02-18T17:19:48;19.23;;;9.63;;
29938;SDS011;16799;50.844;5.304;2023-02-18T17:22:14;10.27;;;7.83;;
29938;SDS011;16799;50.844;5.304;2023-02-18T17:24:40;10.57;;;7.87;;
29938;SDS011;16799;50.844;5.304;2023-02-18T17:27:07;9.80;;;7.97;;
29938;SDS011;16799;50.844;5.304;2023-02-18T17:29:34;11.33;;;7.60;;
29938;SDS011;16799;50.844;5.304;2023-02-18T17:32:00;10.83;;;7.97;;
29938;SDS011;16799;50.844;5.304;2023-02-18T17:34:28;8.57;;;7.57;;
29938;SDS011;16799;50.844;5.304;2023-02-18T17:36:56;9.90;;;6.50;;
29938;SDS011;16799;50.844;5.304;2023-02-18T17:39:22;9.73;;;6.73;;